Time;durP1;ratioP1;P1;durP2;ratioP2;P2;SDS_P1;SDS_P2;PMS_P1;PMS_P2;Temp;Humidity;BMP_temperature;BMP_pressure;BME280_temperature;BME280_humidity;BME280_pressure;Samples;Min_cycle;Max_cycle;Signal;HPM_P1;HPM_P2
2022/03/04 00:00:09;;;;;;;56.37;26.87;;;;;;;-1.62;100.00;60635.59;5096298;28;20452;-74
2022/03/04 00:02:37;;;;;;;58.50;28.23;;;;;;;-1.53;100.00;60652.63;5114554;28;20445;-74
2022/03/04 00:05:14;;;;;;;60.60;28.33;;;;;;;-0.61;100.00;60741.41;5114519;28;20433;-75
2022/03/04 00:07:43;;;;;;;54.90;26.57;;;;;;;-1.69;100.00;60633.19;5114425;28;20437;-75
2022/03/04 00:10:11;;;;;;;53.90;26.57;;;;;;;-0.35;100.00;60771.44;5114114;28;20577;-74
2022/03/04 00:12:53;;;;;;;56.53;27.23;;;;;;;-0.39;100.00;60765.22;5096371;28;20835;-74
2022/03/04 00:15:21;;;;;;;60.67;27.63;;;;;;;-2.36;100.00;60572.34;5114093;28;20484;-74
2022/03/04 00:17:50;;;;;;;57.67;27.83;;;;;;;-2.63;100.00;60519.94;5114403;28;20521;-74
2022/03/04 00:20:18;;;;;;;58.30;26.77;;;;;;;-0.41;100.00;60767.59;5114190;28;20441;-74
2022/03/04 00:22:47;;;;;;;65.47;27.03;;;;;;;-0.41;100.00;60767.59;5113238;28;20441;-74
2022/03/04 00:25:18;;;;;;;61.77;28.27;;;;;;;-0.31;100.00;60778.16;5113922;28;20452;-75
2022/03/04 00:27:45;;;;;;;59.00;27.17;;;;;;;-1.98;100.00;60602.53;5113910;28;20465;-74
2022/03/04 00:30:14;;;;;;;46.97;23.47;;;;;;;-0.36;100.00;60765.91;5114621;28;20472;-73
2022/03/04 00:32:42;;;;;;;54.07;25.13;;;;;;;-0.39;100.00;60767.19;5114912;28;20463;-74
2022/03/04 00:35:13;;;;;;;43.73;22.17;;;;;;;-0.56;100.00;60746.72;5114072;28;20480;-72
2022/03/04 00:37:40;;;;;;;46.87;20.80;;;;;;;-0.65;100.00;60742.16;5113668;28;20505;-74
2022/03/04 00:40:27;;;;;;;45.17;23.20;;;;;;;-0.55;100.00;60753.28;5113370;28;20449;-74
2022/03/04 00:42:57;;;;;;;47.63;23.97;;;;;;;-0.79;100.00;60727.34;5109939;28;20452;-74
2022/03/04 00:45:24;;;;;;;45.83;22.33;;;;;;;-0.72;100.00;60729.78;5113957;28;20466;-76
2022/03/04 00:47:53;;;;;;;44.60;23.40;;;;;;;-1.66;100.00;60635.81;5113914;28;20445;-73
2022/03/04 00:50:20;;;;;;;44.23;22.30;;;;;;;-0.84;100.00;60722.06;5113616;28;20437;-76
2022/03/04 00:52:49;;;;;;;42.73;22.37;;;;;;;-0.82;100.00;60724.69;5113441;28;20449;-74
2022/03/04 00:55:18;;;;;;;41.97;21.57;;;;;;;-2.09;100.00;60588.41;5113022;28;20814;-74
2022/03/04 00:57:49;;;;;;;49.90;23.87;;;;;;;-0.82;100.00;60724.19;5113438;28;20506;-76
2022/03/04 01:00:23;;;;;;;43.87;22.13;;;;;;;-0.66;100.00;60738.63;5113424;28;20461;-74
2022/03/04 01:02:53;;;;;;;43.93;19.93;;;;;;;-1.41;100.00;60662.81;5112672;28;20524;-75
2022/03/04 01:05:24;;;;;;;31.77;16.23;;;;;;;-0.97;100.00;60709.38;5112933;28;20449;-74
2022/03/04 01:07:52;;;;;;;28.27;15.13;;;;;;;-0.82;100.00;60722.19;5113049;28;20548;-73
2022/03/04 01:10:29;;;;;;;36.97;17.50;;;;;;;-0.99;100.00;60707.25;5114030;28;20467;-75
2022/03/04 01:13:01;;;;;;;26.40;13.53;;;;;;;-0.97;100.00;60709.38;5113201;28;20449;-74
2022/03/04 01:15:29;;;;;;;20.33;10.77;;;;;;;-1.06;100.00;60699.31;5113324;28;20480;-75
2022/03/04 01:17:57;;;;;;;17.63;8.90;;;;;;;-0.84;100.00;60719.56;5112804;28;20441;-74
2022/03/04 01:20:25;;;;;;;13.93;8.10;;;;;;;-0.77;100.00;60726.97;5112805;28;20445;-74
2022/03/04 01:22:54;;;;;;;22.60;10.50;;;;;;;-0.75;100.00;60726.59;5111915;28;20448;-73
2022/03/04 01:25:23;;;;;;;26.87;11.80;;;;;;;-0.84;100.00;60727.06;5095841;28;20437;-75
2022/03/04 01:27:51;;;;;;;15.97;8.70;;;;;;;-0.63;100.00;60744.28;5114522;28;20473;-73
2022/03/04 01:30:22;;;;;;;17.90;9.33;;;;;;;-0.62;100.00;60745.34;5112357;28;20959;-75
2022/03/04 01:32:51;;;;;;;17.67;7.50;;;;;;;-1.11;100.00;60689.56;5112675;28;20449;-74
2022/03/04 01:35:33;;;;;;;15.67;8.10;;;;;;;-1.99;100.00;60594.00;5112667;28;20525;-74
2022/03/04 01:38:03;;;;;;;19.43;8.63;;;;;;;-1.63;100.00;60644.53;5112706;28;20448;-74
2022/03/04 01:40:32;;;;;;;14.43;8.00;;;;;;;-2.54;100.00;60533.38;5112447;28;20449;-74
2022/03/04 01:43:01;;;;;;;15.40;8.10;;;;;;;-0.91;100.00;60710.72;5112319;28;20972;-74
2022/03/04 01:45:35;;;;;;;14.50;8.63;;;;;;;-2.08;100.00;60586.97;5112763;28;20445;-73
2022/03/04 01:48:03;;;;;;;15.80;9.17;;;;;;;-0.83;100.00;60721.16;5112849;28;20486;-75
2022/03/04 01:50:35;;;;;;;16.20;8.43;;;;;;;-2.20;100.00;60579.81;5113235;28;20517;-75
2022/03/04 01:53:03;;;;;;;19.17;9.77;;;;;;;-0.91;100.00;60713.22;5112518;28;20453;-76
2022/03/04 01:55:33;;;;;;;19.03;9.50;;;;;;;-2.07;100.00;60588.03;5111935;28;20488;-75
2022/03/04 01:58:01;;;;;;;19.57;10.10;;;;;;;-2.29;100.00;60572.25;5112372;28;20457;-75
2022/03/04 02:00:32;;;;;;;18.87;10.40;;;;;;;-0.73;100.00;60731.75;5112387;28;20990;-76
2022/03/04 02:03:00;;;;;;;21.33;10.70;;;;;;;-0.92;100.00;60709.66;5112096;28;20460;-74
2022/03/04 02:05:28;;;;;;;36.80;14.47;;;;;;;-0.66;100.00;60738.63;5112401;28;20445;-75
2022/03/04 02:07:55;;;;;;;43.73;14.93;;;;;;;-0.77;100.00;60729.47;5112023;28;21014;-75
2022/03/04 02:10:23;;;;;;;34.43;13.53;;;;;;;-0.91;100.00;60710.72;5111944;28;20951;-76
2022/03/04 02:12:51;;;;;;;29.33;12.87;;;;;;;-0.78;100.00;60725.91;5111734;28;20521;-73
2022/03/04 02:15:19;;;;;;;35.40;14.00;;;;;;;-1.14;100.00;60686.38;5097502;28;20481;-75
2022/03/04 02:17:48;;;;;;;35.40;13.13;;;;;;;-2.44;100.00;60563.88;5116731;28;20769;-75
2022/03/04 02:20:16;;;;;;;23.97;11.40;;;;;;;-0.86;100.00;60720.47;5116256;28;20448;-74
2022/03/04 02:22:51;;;;;;;27.67;13.20;;;;;;;-0.76;100.00;60730.53;5096714;28;20433;-73
2022/03/04 02:25:18;;;;;;;33.57;14.40;;;;;;;-0.75;100.00;60731.59;5116508;28;20865;-74
2022/03/04 02:27:47;;;;;;;32.63;14.03;;;;;;;-0.79;100.00;60727.34;5116201;28;20544;-75
2022/03/04 02:30:16;;;;;;;28.63;12.47;;;;;;;-2.19;100.00;60580.34;5116816;28;20429;-74
2022/03/04 02:32:43;;;;;;;31.50;13.73;;;;;;;-0.91;100.00;60712.69;5116733;28;20445;-74
2022/03/04 02:35:11;;;;;;;27.80;13.23;;;;;;;-1.91;100.00;60605.47;5097773;28;20897;-75
2022/03/04 02:37:39;;;;;;;31.33;14.37;;;;;;;-1.02;100.00;60701.03;5115642;28;20536;-75
2022/03/04 02:40:10;;;;;;;32.93;14.83;;;;;;;-1.15;100.00;60687.28;5115830;28;20806;-74
2022/03/04 02:42:37;;;;;;;38.10;15.50;;;;;;;-0.90;100.00;60714.25;5115711;28;20796;-73
2022/03/04 02:45:06;;;;;;;30.47;15.03;;;;;;;-0.90;100.00;60713.72;5116127;28;20437;-74
2022/03/04 02:47:34;;;;;;;37.43;18.50;;;;;;;-0.92;100.00;60712.16;5117588;28;20432;-73
2022/03/04 02:50:02;;;;;;;43.50;19.33;;;;;;;-2.44;100.00;60549.47;5118143;28;20996;-74
2022/03/04 02:52:31;;;;;;;58.80;24.97;;;;;;;-1.28;100.00;60673.53;5098520;28;20869;-73
2022/03/04 02:55:10;;;;;;;83.97;36.63;;;;;;;-0.90;100.00;60713.72;5115990;28;20484;-74
2022/03/04 02:57:40;;;;;;;53.87;25.17;;;;;;;-2.28;100.00;60570.81;5115616;28;20508;-73
2022/03/04 03:00:13;;;;;;;49.90;22.80;;;;;;;-1.13;100.00;60692.44;5115811;28;20444;-76
2022/03/04 03:02:42;;;;;;;54.70;23.20;;;;;;;-1.07;100.00;60703.78;5116279;28;20417;-75
2022/03/04 03:05:14;;;;;;;48.73;21.83;;;;;;;-1.13;100.00;60689.94;5115376;28;20993;-73
2022/03/04 03:07:54;;;;;;;43.67;21.43;;;;;;;-1.34;100.00;60665.22;5098044;28;20444;-74
2022/03/04 03:10:26;;;;;;;49.37;22.07;;;;;;;-2.49;100.00;60551.13;5115643;28;20433;-75
2022/03/04 03:12:55;;;;;;;51.40;23.63;;;;;;;-1.43;100.00;60655.69;5115272;28;21018;-75
2022/03/04 03:15:22;;;;;;;54.43;24.20;;;;;;;-2.08;100.00;60590.00;5115014;28;20475;-74
2022/03/04 03:17:53;;;;;;;52.53;24.00;;;;;;;-1.30;100.00;60671.94;5115033;28;20550;-75
2022/03/04 03:20:27;;;;;;;48.27;22.83;;;;;;;-1.41;100.00;60657.81;5115409;28;20432;-74
2022/03/04 03:22:55;;;;;;;45.60;23.10;;;;;;;-3.06;100.00;60487.00;5114434;28;20452;-73
2022/03/04 03:25:22;;;;;;;45.40;22.60;;;;;;;-3.22;100.00;60467.09;5112778;28;20456;-75
2022/03/04 03:27:50;;;;;;;51.87;24.07;;;;;;;-3.13;100.00;60477.13;5115007;28;20509;-75
2022/03/04 03:36:41;;;;;;;39.40;20.40;;;;;;;-1.38;100.00;60660.97;5113951;28;20477;-73
2022/03/04 03:39:11;;;;;;;43.87;20.80;;;;;;;-1.77;100.00;60622.25;5114777;28;20441;-73
2022/03/04 03:41:43;;;;;;;43.20;19.90;;;;;;;-1.67;100.00;60632.81;5115159;28;20425;-76
2022/03/04 03:44:13;;;;;;;37.80;19.43;;;;;;;-1.58;100.00;60639.28;5115189;28;20453;-73
2022/03/04 03:46:44;;;;;;;72.23;32.97;;;;;;;-1.51;100.00;60652.22;5114564;28;20445;-75
2022/03/04 03:49:18;;;;;;;65.17;29.50;;;;;;;-1.33;100.00;60671.28;5096516;28;20891;-73
2022/03/04 03:51:50;;;;;;;60.77;26.57;;;;;;;-1.50;100.00;60650.25;5115372;28;20452;-74
2022/03/04 03:54:17;;;;;;;61.63;27.23;;;;;;;-2.94;100.00;60499.69;5114308;28;20444;-73
2022/03/04 03:56:45;;;;;;;72.07;29.30;;;;;;;-3.30;100.00;60471.09;5114228;28;20902;-74
2022/03/04 03:59:16;;;;;;;64.27;29.07;;;;;;;-2.79;100.00;60518.00;5114332;28;21034;-76
2022/03/04 04:01:47;;;;;;;47.07;24.87;;;;;;;-2.98;100.00;60502.38;5114474;28;20506;-74
2022/03/04 04:04:18;;;;;;;51.17;24.80;;;;;;;-3.23;100.00;60469.03;5114751;28;20868;-74
2022/03/04 04:06:50;;;;;;;45.63;22.70;;;;;;;-1.51;100.00;60652.22;5114291;28;20461;-73
2022/03/04 04:09:19;;;;;;;59.27;24.63;;;;;;;-1.65;100.00;60637.44;5114578;28;20478;-74
2022/03/04 04:11:47;;;;;;;39.53;19.80;;;;;;;-1.31;100.00;60673.38;5114542;28;20460;-75
2022/03/04 04:14:16;;;;;;;46.57;23.13;;;;;;;-1.32;100.00;60672.31;5113742;28;20453;-74
2022/03/04 04:16:45;;;;;;;46.40;21.60;;;;;;;-1.40;100.00;60663.88;5095873;28;20563;-76
2022/03/04 04:19:12;;;;;;;48.77;23.03;;;;;;;-1.70;100.00;60627.13;5113775;28;20504;-74
2022/03/04 04:21:45;;;;;;;45.27;22.93;;;;;;;-2.73;100.00;60518.81;5113909;28;20444;-73
2022/03/04 04:24:28;;;;;;;51.17;24.03;;;;;;;-1.52;100.00;60651.16;5114081;28;21013;-75
2022/03/04 04:26:57;;;;;;;47.77;24.33;;;;;;;-1.47;100.00;60655.94;5095218;28;20437;-75
2022/03/04 04:29:25;;;;;;;45.97;21.83;;;;;;;-2.98;100.00;60490.47;5113613;28;20460;-74
2022/03/04 04:31:57;;;;;;;49.00;22.27;;;;;;;-1.48;100.00;60650.41;5113680;28;20490;-76
2022/03/04 04:34:25;;;;;;;29.33;16.67;;;;;;;-3.04;100.00;60491.59;5113830;28;20936;-73
2022/03/04 04:36:54;;;;;;;34.70;18.20;;;;;;;-2.48;100.00;60552.19;5094533;28;20488;-73
2022/03/04 04:39:22;;;;;;;39.07;19.90;;;;;;;-1.51;100.00;60652.22;5113983;28;20951;-74
2022/03/04 04:41:52;;;;;;;46.80;22.27;;;;;;;-3.05;100.00;60490.00;5113706;28;20449;-73
2022/03/04 04:44:19;;;;;;;45.83;23.40;;;;;;;-2.36;100.00;60562.38;5113633;28;21027;-72
2022/03/04 04:46:51;;;;;;;47.73;23.30;;;;;;;-1.31;100.00;60667.88;5113299;28;20457;-75
2022/03/04 04:49:20;;;;;;;53.20;24.47;;;;;;;-3.24;100.00;60467.47;5095605;28;20484;-73
2022/03/04 04:51:47;;;;;;;49.70;23.53;;;;;;;-1.36;100.00;60668.09;5113171;28;20812;-75
2022/03/04 04:54:14;;;;;;;49.67;23.80;;;;;;;-1.36;100.00;60663.09;5112969;28;20448;-72
2022/03/04 04:56:44;;;;;;;49.87;24.23;;;;;;;-1.96;100.00;60604.63;5113866;28;20536;-73
2022/03/04 04:59:14;;;;;;;51.90;23.03;;;;;;;-1.52;100.00;60645.63;5113340;28;20440;-74
2022/03/04 05:01:43;;;;;;;58.63;21.57;;;;;;;-1.66;100.00;60631.38;5094829;28;20433;-75
2022/03/04 05:04:10;;;;;;;45.17;20.33;;;;;;;-3.12;100.00;60478.19;5113639;28;20498;-74
2022/03/04 05:06:42;;;;;;;43.63;21.23;;;;;;;-1.60;100.00;60642.16;5112983;28;20445;-72
2022/03/04 05:09:09;;;;;;;42.43;20.77;;;;;;;-1.88;100.00;60605.63;5113396;28;20437;-75
2022/03/04 05:11:38;;;;;;;42.67;21.00;;;;;;;-1.80;100.00;60616.56;5112755;28;20456;-75
2022/03/04 05:14:05;;;;;;;50.33;22.17;;;;;;;-1.82;100.00;60614.44;5113025;28;20889;-74
2022/03/04 05:16:32;;;;;;;41.13;20.30;;;;;;;-1.97;100.00;60599.13;5112322;28;20568;-73
2022/03/04 05:18:59;;;;;;;41.37;21.70;;;;;;;-1.84;100.00;60617.31;5112581;28;20456;-75
2022/03/04 05:21:27;;;;;;;87.43;36.63;;;;;;;-1.66;100.00;60638.31;5112442;28;20620;-72
2022/03/04 05:24:00;;;;;;;119.50;46.33;;;;;;;-1.54;100.00;60644.06;5112958;28;20479;-74
2022/03/04 05:26:32;;;;;;;102.60;43.57;;;;;;;-1.63;100.00;60634.56;5112858;28;20432;-74
2022/03/04 05:29:03;;;;;;;52.67;23.63;;;;;;;-1.65;100.00;60634.41;5113151;28;20472;-76
2022/03/04 05:31:30;;;;;;;38.23;19.03;;;;;;;-1.70;100.00;60632.13;5112810;28;20473;-76
2022/03/04 05:33:59;;;;;;;43.73;20.50;;;;;;;-1.63;100.00;60636.50;5112830;28;20447;-75
2022/03/04 05:36:28;;;;;;;37.93;19.97;;;;;;;-2.19;100.00;60580.84;5112751;28;20475;-75
2022/03/04 05:38:57;;;;;;;39.97;19.90;;;;;;;-1.50;100.00;60647.75;5113298;28;20449;-74
2022/03/04 05:41:26;;;;;;;49.23;22.93;;;;;;;-2.01;100.00;60599.88;5113865;28;20451;-75
2022/03/04 05:43:53;;;;;;;41.87;21.97;;;;;;;-1.41;100.00;60662.81;5112472;28;20801;-75
2022/03/04 05:46:21;;;;;;;44.33;22.20;;;;;;;-1.44;100.00;60654.63;5112635;28;20981;-76
2022/03/04 05:48:48;;;;;;;45.03;23.67;;;;;;;-1.41;100.00;60662.28;5112489;28;20437;-74
2022/03/04 05:51:17;;;;;;;56.00;28.77;;;;;;;-2.89;100.00;60507.44;5112862;28;20441;-75
2022/03/04 05:53:45;;;;;;;57.75;25.15;;;;;;;-1.30;100.00;60673.91;5094230;28;20504;-75
2022/03/04 05:56:25;;;;;;;58.03;27.43;;;;;;;-1.44;100.00;60659.63;5112982;28;20230;-76
2022/03/04 05:58:54;;;;;;;58.40;27.33;;;;;;;-2.83;100.00;60516.25;5112072;28;20449;-75
2022/03/04 06:01:22;;;;;;;63.87;31.33;;;;;;;-1.37;100.00;60667.03;5111993;28;20501;-74
2022/03/04 06:03:52;;;;;;;65.63;30.23;;;;;;;-1.30;100.00;60674.44;5094415;28;20440;-75
2022/03/04 06:06:20;;;;;;;63.70;31.80;;;;;;;-1.12;100.00;60693.47;5112355;28;20444;-75
2022/03/04 06:08:48;;;;;;;63.40;30.17;;;;;;;-1.01;100.00;60705.13;5111983;28;20455;-76
2022/03/04 06:11:22;;;;;;;61.10;32.33;;;;;;;-0.80;100.00;60726.31;5094114;28;20440;-75
2022/03/04 06:13:49;;;;;;;59.37;30.40;;;;;;;-2.79;100.00;60512.47;5112420;28;20978;-75
2022/03/04 06:16:27;;;;;;;100.23;46.33;;;;;;;-1.78;100.00;60626.16;5093981;28;20556;-73
2022/03/04 06:18:54;;;;;;;70.77;35.43;;;;;;;-1.79;100.00;60622.63;5094033;28;20462;-75
2022/03/04 06:21:23;;;;;;;67.83;32.03;;;;;;;-0.79;100.00;60724.84;5112245;28;20433;-74
2022/03/04 06:23:53;;;;;;;67.10;31.03;;;;;;;-1.30;100.00;60669.44;5112016;28;20478;-75
2022/03/04 06:26:22;;;;;;;63.20;30.50;;;;;;;0.16;100.00;60822.97;5113251;28;20544;-75
2022/03/04 06:28:49;;;;;;;62.93;29.47;;;;;;;0.11;100.00;60822.66;5112333;28;20445;-74
2022/03/04 06:31:16;;;;;;;86.17;38.13;;;;;;;0.59;100.00;60871.03;5112027;28;20432;-75
2022/03/04 06:33:45;;;;;;;99.33;41.23;;;;;;;0.81;100.00;60896.84;5112009;28;20946;-75
2022/03/04 06:36:16;;;;;;;100.47;38.83;;;;;;;0.26;100.00;60838.03;5112618;28;20480;-74
2022/03/04 06:38:48;;;;;;;102.20;36.60;;;;;;;0.99;100.00;60909.88;5093805;28;20476;-76
2022/03/04 06:41:16;;;;;;;77.87;33.57;;;;;;;0.08;100.00;60822.00;5111649;28;20443;-73
2022/03/04 06:43:45;;;;;;;65.10;30.53;;;;;;;0.91;100.00;60901.41;5111580;28;20452;-76
2022/03/04 06:46:14;;;;;;;52.50;24.63;;;;;;;1.06;100.00;60919.81;5111419;28;20455;-75
2022/03/04 06:48:42;;;;;;;47.07;24.07;;;;;;;1.01;100.00;60922.03;5111887;28;20507;-76
2022/03/04 06:53:50;;;;;;;66.53;32.03;;;;;;;1.03;100.00;60919.16;5109130;28;20445;-75
2022/03/04 06:56:18;;;;;;;58.23;31.10;;;;;;;-0.04;100.00;60814.81;5111579;28;20839;-75
2022/03/04 06:58:48;;;;;;;66.33;35.50;;;;;;;1.13;100.00;60929.75;5111645;28;20919;-74
2022/03/04 07:01:19;;;;;;;78.40;39.33;;;;;;;1.15;100.00;60929.38;5114365;28;20436;-73
2022/03/04 07:03:47;;;;;;;82.77;35.23;;;;;;;1.21;100.00;60938.22;5115373;28;20501;-75
2022/03/04 07:06:18;;;;;;;68.20;30.50;;;;;;;1.48;100.00;60966.88;5097268;28;20539;-75
2022/03/04 07:08:52;;;;;;;68.43;32.13;;;;;;;1.39;100.00;60952.31;5115500;28;20444;-74
2022/03/04 07:11:21;;;;;;;86.77;36.13;;;;;;;1.19;100.00;60936.63;5115396;28;20432;-74
2022/03/04 07:13:51;;;;;;;112.83;36.43;;;;;;;1.42;100.00;60960.50;5110467;28;20913;-75
2022/03/04 07:16:18;;;;;;;87.43;32.47;;;;;;;0.60;100.00;60869.59;5114969;28;20481;-74
2022/03/04 07:18:46;;;;;;;89.87;32.67;;;;;;;1.51;100.00;60965.03;5115281;28;20982;-74
2022/03/04 07:21:19;;;;;;;68.93;30.80;;;;;;;1.33;100.00;60950.97;5115403;28;21031;-74
2022/03/04 07:23:52;;;;;;;70.90;31.03;;;;;;;1.65;100.00;60980.41;5115424;28;20468;-76
2022/03/04 07:26:19;;;;;;;71.67;32.30;;;;;;;1.95;100.00;61011.22;5115104;28;20492;-76
2022/03/04 07:28:52;;;;;;;58.77;29.43;;;;;;;1.72;100.00;60992.34;5115528;28;20441;-75
2022/03/04 07:31:20;;;;;;;55.70;26.80;;;;;;;0.75;100.00;60890.50;5096929;28;20800;-74
2022/03/04 07:33:47;;;;;;;71.00;30.90;;;;;;;1.76;100.00;60993.53;5115010;28;20456;-73
2022/03/04 07:36:16;;;;;;;62.00;30.27;;;;;;;2.37;100.00;61060.84;5114694;28;21059;-74
2022/03/04 07:38:44;;;;;;;110.77;30.17;;;;;;;2.36;100.00;61060.31;5114492;28;20437;-74
2022/03/04 07:41:14;;;;;;;66.73;28.13;;;;;;;1.17;100.00;60934.00;5113978;28;20549;-75
2022/03/04 07:43:42;;;;;;;40.40;23.37;;;;;;;2.39;100.00;61063.50;5114360;28;20983;-75
2022/03/04 07:46:11;;;;;;;68.23;26.03;;;;;;;2.58;100.00;61085.13;5114871;28;20503;-76
2022/03/04 07:48:38;;;;;;;65.50;25.63;;;;;;;2.73;100.00;61096.56;5115561;28;20777;-75
2022/03/04 07:51:06;;;;;;;52.27;22.83;;;;;;;2.95;100.00;61116.91;5114622;28;20437;-75
2022/03/04 07:53:33;;;;;;;63.27;23.23;;;;;;;1.65;100.00;60990.47;5114748;28;20505;-73
2022/03/04 07:56:04;;;;;;;40.47;19.83;;;;;;;3.17;100.00;61145.31;5097395;28;20536;-74
2022/03/04 07:58:31;;;;;;;47.40;21.17;;;;;;;2.06;100.00;61028.44;5115116;28;20444;-74
2022/03/04 08:01:05;;;;;;;79.10;26.00;;;;;;;3.16;100.00;61144.25;5114372;28;20437;-74
2022/03/04 08:03:37;;;;;;;52.70;20.47;;;;;;;3.10;100.00;61135.88;5096678;28;20445;-74
2022/03/04 08:06:04;;;;;;;39.20;19.80;;;;;;;2.28;100.00;61048.75;5114511;28;21008;-75
2022/03/04 08:08:31;;;;;;;49.67;23.97;;;;;;;1.22;100.00;60934.81;5114280;28;20517;-75
2022/03/04 08:11:00;;;;;;;59.03;24.33;;;;;;;3.35;100.00;61164.44;5113409;28;20505;-76
2022/03/04 08:13:28;;;;;;;52.20;25.17;;;;;;;2.74;100.00;61097.63;5099249;28;20849;-75
2022/03/04 08:15:57;;;;;;;41.73;22.23;;;;;;;2.39;100.00;61066.00;5114179;28;20536;-75
2022/03/04 08:18:26;;;;;;;63.87;25.67;;;;;;;2.73;100.00;61093.50;5114187;28;20439;-73
2022/03/04 08:20:54;;;;;;;55.97;22.63;;;;;;;3.92;100.00;61222.03;5113949;28;20452;-75
2022/03/04 08:23:23;;;;;;;41.97;20.73;;;;;;;2.51;100.00;61080.72;5114236;28;20879;-75
2022/03/04 08:25:51;;;;;;;39.13;21.50;;;;;;;3.60;100.00;61191.03;5114120;28;20433;-74
2022/03/04 08:28:19;;;;;;;44.73;20.67;;;;;;;2.08;100.00;61032.53;5113552;28;20877;-74
2022/03/04 08:30:47;;;;;;;43.20;21.13;;;;;;;3.55;100.00;61185.72;5095881;28;20433;-72
2022/03/04 08:33:14;;;;;;;35.70;19.07;;;;;;;3.66;100.00;61196.88;5113296;28;20525;-76
2022/03/04 08:35:45;;;;;;;41.33;21.43;;;;;;;2.72;100.00;61102.53;5113791;28;20441;-75
2022/03/04 08:38:18;;;;;;;40.47;19.30;;;;;;;3.02;100.00;61134.41;5095592;28;20476;-75
2022/03/04 08:40:46;;;;;;;39.50;18.70;;;;;;;3.25;100.00;61154.34;5114039;28;20445;-75
2022/03/04 08:43:20;;;;;;;43.60;20.70;;;;;;;3.87;100.00;61219.75;5114169;28;20548;-76
2022/03/04 08:45:48;;;;;;;48.07;21.43;;;;;;;4.10;100.00;61244.22;5114168;28;20858;-73
2022/03/04 08:48:15;;;;;;;44.87;20.90;;;;;;;4.09;100.00;61245.16;5113490;28;20445;-74
2022/03/04 08:50:46;;;;;;;48.67;20.63;;;;;;;4.29;100.00;61253.81;5113463;28;20565;-76
2022/03/04 08:53:18;;;;;;;48.60;21.43;;;;;;;4.48;100.00;61278.56;5113606;28;20437;-74
2022/03/04 08:55:48;;;;;;;49.37;21.00;;;;;;;4.97;100.00;61333.78;5113490;28;20440;-74
2022/03/04 08:58:26;;;;;;;53.23;20.33;;;;;;;4.88;100.00;61323.66;5113042;28;20541;-78
2022/03/04 09:00:55;;;;;;;48.00;20.30;;;;;;;5.38;100.00;61376.94;5113401;28;20443;-77
2022/03/04 09:03:24;;;;;;;39.63;20.43;;;;;;;4.42;100.00;61272.72;5113061;28;21011;-74
2022/03/04 09:05:53;;;;;;;46.17;19.80;;;;;;;5.66;100.00;61404.25;5113498;28;20473;-75
2022/03/04 09:08:28;;;;;;;37.80;19.33;;;;;;;5.50;100.00;61389.19;5113299;28;20437;-75
2022/03/04 09:11:00;;;;;;;44.77;22.27;;;;;;;6.03;100.00;61445.16;5113689;28;20428;-73
2022/03/04 09:13:30;;;;;;;38.43;19.80;;;;;;;5.88;100.00;61432.78;5113997;28;20465;-76
2022/03/04 09:16:01;;;;;;;37.23;19.87;;;;;;;5.46;100.00;61385.47;5096574;28;20531;-76
2022/03/04 09:18:29;;;;;;;50.37;21.30;;;;;;;4.25;100.00;61259.66;5113771;28;21006;-74
2022/03/04 09:20:59;;;;;;;40.70;21.20;;;;;;;6.16;100.00;61459.03;5114619;28;20436;-74
2022/03/04 09:23:34;;;;;;;34.60;19.33;;;;;;;6.43;100.00;61485.31;5112335;28;20484;-76
2022/03/04 09:26:02;;;;;;;32.47;18.60;;;;;;;6.41;100.00;61483.16;5113407;28;20853;-74
2022/03/04 09:28:32;;;;;;;35.40;21.50;;;;;;;6.84;100.00;61529.06;5112691;28;20989;-74
2022/03/04 09:31:02;;;;;;;44.37;21.63;;;;;;;7.12;100.00;61558.94;5112690;28;20521;-73
2022/03/04 09:33:29;;;;;;;35.73;19.50;;;;;;;7.55;100.00;61611.91;5112910;28;20429;-76
2022/03/04 09:35:57;;;;;;;35.47;19.40;;;;;;;7.17;100.00;61569.34;5112226;28;20455;-75
2022/03/04 09:38:24;;;;;;;33.47;20.20;;;;;;;5.11;100.00;61348.19;5112468;28;20520;-77
2022/03/04 09:40:53;;;;;;;34.80;21.17;;;;;;;5.72;100.00;61412.63;5112285;28;20449;-74
2022/03/04 09:43:23;;;;;;;47.13;23.20;;;;;;;7.38;100.00;61586.69;5112249;28;20818;-74
2022/03/04 09:45:51;;;;;;;45.93;23.20;;;;;;;8.12;100.00;61665.19;5112192;28;20974;-74
2022/03/04 09:48:20;;;;;;;38.20;20.27;;;;;;;8.33;100.00;61692.72;5112683;28;20769;-76
2022/03/04 09:50:49;;;;;;;36.30;20.53;;;;;;;6.87;100.00;61539.31;5093974;28;20433;-74
2022/03/04 09:53:17;;;;;;;36.40;20.27;;;;;;;7.38;100.00;61591.75;5114954;28;20433;-74
2022/03/04 09:55:45;;;;;;;44.90;21.10;;;;;;;7.36;100.00;61589.63;5112966;28;20428;-74
2022/03/04 09:58:15;;;;;;;37.13;21.53;;;;;;;7.64;100.00;61614.47;5112315;28;21026;-74
2022/03/04 10:00:43;;;;;;;34.73;19.97;;;;;;;8.68;100.00;61724.53;5115534;28;20444;-74
2022/03/04 10:03:22;;;;;;;35.63;20.50;;;;;;;8.85;100.00;61747.25;5112299;28;20432;-76
2022/03/04 10:05:54;;;;;;;43.23;20.90;;;;;;;9.12;100.00;61771.03;5112148;28;20531;-76
2022/03/04 10:08:22;;;;;;;37.47;20.40;;;;;;;9.62;100.00;61824.03;5111878;28;20449;-76
2022/03/04 10:10:50;;;;;;;39.87;20.00;;;;;;;9.38;98.33;61800.88;5112003;28;20437;-76
2022/03/04 10:13:40;;;;;;;44.37;19.87;;;;;;;9.24;94.19;61789.50;5112135;28;20521;-76
2022/03/04 10:16:09;;;;;;;41.90;20.77;;;;;;;9.86;91.66;61852.78;5112114;28;20455;-73
2022/03/04 10:18:37;;;;;;;40.63;21.27;;;;;;;8.62;89.03;61717.56;5111597;28;20488;-75
2022/03/04 10:21:07;;;;;;;37.13;19.87;;;;;;;9.57;90.64;61818.66;5093823;28;20943;-74
2022/03/04 10:23:37;;;;;;;37.47;19.60;;;;;;;9.25;92.97;61785.50;5112040;28;20472;-75
2022/03/04 10:26:04;;;;;;;37.63;20.27;;;;;;;9.36;94.98;61804.88;5112143;28;20437;-75
2022/03/04 10:28:34;;;;;;;36.37;19.93;;;;;;;9.57;96.20;61821.19;5093699;28;20448;-74
2022/03/04 10:31:00;;;;;;;33.20;20.07;;;;;;;10.16;92.80;61881.84;5111598;28;20448;-74
2022/03/04 10:33:30;;;;;;;45.90;22.90;;;;;;;8.89;90.43;61747.00;5111354;28;20452;-74
2022/03/04 10:36:12;;;;;;;44.33;20.73;;;;;;;9.09;91.19;61765.84;5096058;28;20461;-73
2022/03/04 10:38:42;;;;;;;41.03;19.73;;;;;;;10.04;92.21;61869.50;5116027;28;20502;-74
2022/03/04 10:41:35;;;;;;;38.40;21.40;;;;;;;10.49;89.84;61916.63;5115978;28;20954;-76
2022/03/04 10:44:26;;;;;;;36.67;20.33;;;;;;;10.91;84.90;61962.16;5116318;28;21073;-74
2022/03/04 10:46:58;;;;;;;48.13;22.27;;;;;;;10.88;82.67;61956.41;5116719;28;20445;-73
2022/03/04 10:49:27;;;;;;;34.23;19.87;;;;;;;11.07;83.09;61979.31;5115787;28;20429;-75
2022/03/04 10:52:09;;;;;;;38.07;21.80;;;;;;;10.12;77.89;61882.66;5115877;28;20947;-75
2022/03/04 10:54:38;;;;;;;37.03;19.83;;;;;;;11.28;78.32;62005.84;5115506;28;20441;-76
2022/03/04 10:57:05;;;;;;;38.03;20.57;;;;;;;11.80;73.83;62059.09;5097216;28;20472;-74
2022/03/04 11:02:18;;;;;;;39.63;20.77;;;;;;;12.27;72.98;62099.31;5114937;28;20290;-74
2022/03/04 11:04:45;;;;;;;42.03;21.60;;;;;;;10.31;70.03;61900.44;5097528;28;20199;-74
2022/03/04 11:07:14;;;;;;;35.23;19.70;;;;;;;12.48;71.89;62132.03;5098890;28;20592;-74
2022/03/04 11:09:41;;;;;;;35.67;21.63;;;;;;;12.43;70.58;62123.59;5115273;28;20723;-75
2022/03/04 11:12:11;;;;;;;41.17;20.03;;;;;;;13.05;68.71;62189.63;5115369;28;20202;-75
2022/03/04 11:14:40;;;;;;;43.20;20.47;;;;;;;12.94;64.75;62177.81;5115385;28;20276;-75
2022/03/04 11:17:09;;;;;;;36.57;21.37;;;;;;;12.77;63.76;62162.09;5115146;28;20677;-74
2022/03/04 11:19:37;;;;;;;37.20;21.67;;;;;;;12.61;66.51;62138.34;5115494;28;20195;-74
2022/03/04 11:22:05;;;;;;;45.63;21.57;;;;;;;13.09;64.58;62199.03;5115267;28;20199;-73
2022/03/04 11:24:36;;;;;;;33.90;20.73;;;;;;;13.05;63.10;62190.16;5093196;28;20235;-77
2022/03/04 11:27:10;;;;;;;37.90;19.93;;;;;;;13.63;62.22;62251.38;5094589;28;20277;-75
2022/03/04 11:29:40;;;;;;;34.77;20.67;;;;;;;13.22;60.63;62207.88;5095063;28;20199;-75
2022/03/04 11:32:08;;;;;;;35.10;19.53;;;;;;;13.00;61.20;62189.34;5094996;28;20662;-76
2022/03/04 11:34:44;;;;;;;35.87;20.60;;;;;;;12.85;59.73;62175.81;5093777;28;20274;-74
2022/03/04 11:37:18;;;;;;;38.10;21.17;;;;;;;13.11;59.51;62190.94;5093247;28;20191;-76